Time;durP1;ratioP1;P1;durP2;ratioP2;P2;SDS_P1;SDS_P2;PMS_P1;PMS_P2;Temp;Humidity;BMP_temperature;BMP_pressure;BME280_temperature;BME280_humidity;BME280_pressure;Samples;Min_cycle;Max_cycle;Signal;HPM_P1;HPM_P2
2021/11/16 00:00:50;;;;;;;;;;;6.80;99.90;;;;;;8416963;28;19920;-72
2021/11/16 00:04:52;;;;;;;;;;;6.80;99.90;;;;;;8421977;28;20363;-72
2021/11/16 00:08:54;;;;;;;;;;;6.80;99.90;;;;;;8416430;28;19943;-71
2021/11/16 00:12:57;;;;;;;;;;;6.80;99.90;;;;;;8417731;28;20280;-71
2021/11/16 00:16:59;;;;;;;;;;;6.80;99.90;;;;;;8426176;28;19977;-72
2021/11/16 00:21:02;;;;;;;;;;;6.80;99.90;;;;;;8434730;28;20007;-71
2021/11/16 00:29:06;;;;;;;;;;;6.90;99.90;;;;;;8421344;28;19928;-72
2021/11/16 00:33:09;;;;;;;;;;;6.90;99.90;;;;;;8419135;28;20291;-72
2021/11/16 00:37:10;;;;;;;;;;;6.90;99.90;;;;;;8426169;28;19920;-72
2021/11/16 00:41:12;;;;;;;;;;;6.90;99.90;;;;;;8423204;28;19920;-71
2021/11/16 00:45:14;;;;;;;;;;;6.90;99.90;;;;;;8420524;28;20363;-72
2021/11/16 00:49:15;;;;;;;;;;;6.90;99.90;;;;;;8423514;28;19943;-72
2021/11/16 00:53:18;;;;;;;;;;;6.80;99.90;;;;;;8422661;28;19926;-72
2021/11/16 00:57:20;;;;;;;;;;;6.80;99.90;;;;;;8429467;28;20384;-71
2021/11/16 01:01:22;;;;;;;;;;;6.80;99.90;;;;;;8418080;28;19931;-72
2021/11/16 01:05:24;;;;;;;;;;;6.80;99.90;;;;;;8420551;28;19931;-72
2021/11/16 01:09:25;;;;;;;;;;;6.90;99.90;;;;;;8422237;28;19928;-72
2021/11/16 01:13:28;;;;;;;;;;;6.90;99.90;;;;;;8418814;28;19920;-71
2021/11/16 01:17:29;;;;;;;;;;;6.90;99.90;;;;;;8423101;28;19920;-72
2021/11/16 01:21:31;;;;;;;;;;;6.90;99.90;;;;;;8419923;28;19920;-72
2021/11/16 01:25:37;;;;;;;;;;;6.90;99.90;;;;;;8421061;28;19989;-72
2021/11/16 01:29:40;;;;;;;;;;;6.90;99.90;;;;;;8410411;28;19924;-71
2021/11/16 01:33:53;;;;;;;;;;;6.90;99.90;;;;;;8419036;28;19920;-71
2021/11/16 01:37:55;;;;;;;;;;;6.90;99.90;;;;;;8420940;28;19935;-72
2021/11/16 01:41:56;;;;;;;;;;;6.90;99.90;;;;;;8416096;28;19927;-72
2021/11/16 01:46:00;;;;;;;;;;;6.90;99.90;;;;;;8412838;28;19920;-72
2021/11/16 01:50:03;;;;;;;;;;;6.90;99.90;;;;;;8419602;28;19924;-72
2021/11/16 01:54:05;;;;;;;;;;;6.90;99.90;;;;;;8415612;28;19928;-72
2021/11/16 01:58:07;;;;;;;;;;;6.90;99.90;;;;;;8414095;28;20037;-72
2021/11/16 02:02:10;;;;;;;;;;;6.90;99.90;;;;;;8422095;28;20264;-71
2021/11/16 02:06:17;;;;;;;;;;;6.90;99.90;;;;;;8425014;28;19928;-72
2021/11/16 02:10:18;;;;;;;;;;;6.90;99.90;;;;;;8423142;28;19924;-72
2021/11/16 02:14:20;;;;;;;;;;;6.90;99.90;;;;;;8435802;28;19931;-72
2021/11/16 02:18:22;;;;;;;;;;;6.90;99.90;;;;;;8434457;28;20316;-72
2021/11/16 02:22:24;;;;;;;;;;;6.90;99.90;;;;;;8426489;28;20367;-71
2021/11/16 02:26:25;;;;;;;;;;;6.90;99.90;;;;;;8429806;28;19932;-72
2021/11/16 02:30:27;;;;;;;;;;;6.80;99.90;;;;;;8429241;28;19931;-72
2021/11/16 02:34:29;;;;;;;;;;;6.90;99.90;;;;;;8429911;28;19919;-72
2021/11/16 02:38:30;;;;;;;;;;;6.80;99.90;;;;;;8441938;28;20371;-72
2021/11/16 02:42:34;;;;;;;;;;;6.80;99.90;;;;;;8433024;28;20328;-72
2021/11/16 02:46:35;;;;;;;;;;;6.80;99.90;;;;;;8425576;28;19930;-72
2021/11/16 02:50:39;;;;;;;;;;;6.80;99.90;;;;;;8426818;28;19973;-72
2021/11/16 02:54:41;;;;;;;;;;;6.80;99.90;;;;;;8425563;28;20253;-71
2021/11/16 02:58:42;;;;;;;;;;;6.80;99.90;;;;;;8418811;28;19920;-72
2021/11/16 03:02:45;;;;;;;;;;;6.80;99.90;;;;;;8422666;28;19924;-71
2021/11/16 03:06:47;;;;;;;;;;;6.80;99.90;;;;;;8426163;28;19936;-72
2021/11/16 03:10:51;;;;;;;;;;;6.80;99.90;;;;;;8424261;28;19928;-71
2021/11/16 03:14:52;;;;;;;;;;;6.80;99.90;;;;;;8431146;28;20359;-72
2021/11/16 03:18:55;;;;;;;;;;;6.80;99.90;;;;;;8427751;28;20610;-72
2021/11/16 03:23:06;;;;;;;;;;;6.80;99.90;;;;;;8425770;28;19920;-71
2021/11/16 03:27:11;;;;;;;;;;;6.80;99.90;;;;;;8419087;28;20383;-72
2021/11/16 03:35:30;;;;;;;;;;;6.80;99.90;;;;;;8429164;28;19920;-71
2021/11/16 03:39:32;;;;;;;;;;;6.80;99.90;;;;;;8425466;28;19924;-71
2021/11/16 03:43:34;;;;;;;;;;;6.80;99.90;;;;;;8428910;28;20018;-71
2021/11/16 03:47:36;;;;;;;;;;;6.80;99.90;;;;;;8425843;28;19920;-72
2021/11/16 03:51:43;;;;;;;;;;;6.80;99.90;;;;;;8429706;28;19920;-72
2021/11/16 03:55:46;;;;;;;;;;;6.80;99.90;;;;;;8425194;28;19924;-72
2021/11/16 03:59:48;;;;;;;;;;;6.70;99.90;;;;;;8415795;28;19935;-72
2021/11/16 04:03:49;;;;;;;;;;;6.70;99.90;;;;;;8437262;28;19920;-72
2021/11/16 04:07:52;;;;;;;;;;;6.70;99.90;;;;;;8431356;28;19928;-72
2021/11/16 04:11:53;;;;;;;;;;;6.70;99.90;;;;;;8425220;28;19924;-72
2021/11/16 04:15:55;;;;;;;;;;;6.70;99.90;;;;;;8431179;28;19927;-72
2021/11/16 04:19:57;;;;;;;;;;;6.70;99.90;;;;;;8421814;28;19927;-71
2021/11/16 04:23:59;;;;;;;;;;;6.80;99.90;;;;;;8457293;27;20291;-72
2021/11/16 04:28:02;;;;;;;;;;;6.80;99.90;;;;;;8426724;28;19973;-72
2021/11/16 04:32:04;;;;;;;;;;;6.70;99.90;;;;;;8424603;28;19931;-71
2021/11/16 04:36:06;;;;;;;;;;;6.70;99.90;;;;;;8426164;28;19923;-72
2021/11/16 04:40:09;;;;;;;;;;;6.70;99.90;;;;;;8420487;28;19946;-72
2021/11/16 04:44:11;;;;;;;;;;;6.70;99.90;;;;;;8412776;28;19920;-73
2021/11/16 04:48:26;;;;;;;;;;;6.70;99.90;;;;;;8421205;28;19920;-72
2021/11/16 04:52:45;;;;;;;;;;;6.70;99.90;;;;;;8418964;28;19927;-72
2021/11/16 05:05:28;;;;;;;;;;;6.70;99.90;;;;;;8420156;28;19928;-72
2021/11/16 05:09:31;;;;;;;;;;;6.70;99.90;;;;;;8423720;28;19927;-72
2021/11/16 05:13:33;;;;;;;;;;;6.70;99.90;;;;;;8426666;28;19927;-72
2021/11/16 05:17:35;;;;;;;;;;;6.70;99.90;;;;;;8422935;28;19928;-72
2021/11/16 05:21:36;;;;;;;35.03;12.38;;;6.70;99.90;;;;;;8417932;28;19928;-72
2021/11/16 05:25:38;;;;;;;;;;;6.70;99.90;;;;;;8420587;28;20044;-72
2021/11/16 05:29:40;;;;;;;;;;;6.70;99.90;;;;;;8417339;28;19924;-72
2021/11/16 05:33:42;;;;;;;;;;;6.80;99.90;;;;;;8455667;27;20375;-72
2021/11/16 05:37:44;;;;;;;;;;;6.70;99.90;;;;;;8417729;28;20390;-72
2021/11/16 05:41:47;;;;;;;;;;;6.70;99.90;;;;;;8415857;28;20399;-71
2021/11/16 05:45:49;;;;;;;;;;;6.70;99.90;;;;;;8420052;28;19926;-71
2021/11/16 05:49:50;;;;;;;;;;;6.80;99.90;;;;;;8414159;28;20317;-72
2021/11/16 05:53:58;;;;;;;;;;;6.70;99.90;;;;;;8415834;28;19947;-72
2021/11/16 05:57:59;;;;;;;;;;;6.70;99.90;;;;;;8409621;28;20038;-71
2021/11/16 06:02:04;;;;;;;;;;;6.70;99.90;;;;;;8414732;28;19939;-71
2021/11/16 06:06:07;;;;;;;;;;;6.70;99.90;;;;;;8415754;28;19971;-71
2021/11/16 06:10:09;;;;;;;;;;;6.70;99.90;;;;;;8424325;28;19924;-72
2021/11/16 06:14:10;;;;;;;;;;;6.70;99.90;;;;;;8421904;28;19924;-71
2021/11/16 06:18:12;;;;;;;;;;;6.70;99.90;;;;;;8418261;28;19931;-72
2021/11/16 06:22:14;;;;;;;;;;;6.70;99.90;;;;;;8415168;28;19978;-72
2021/11/16 06:26:16;;;;;;;;;;;6.70;99.90;;;;;;8421845;28;19963;-71
2021/11/16 06:30:18;;;;;;;;;;;6.70;99.90;;;;;;8429023;28;20298;-71
2021/11/16 06:34:20;;;;;;;;;;;6.70;99.90;;;;;;8421671;28;20236;-71
2021/11/16 06:38:21;;;;;;;;;;;6.70;99.90;;;;;;8423172;28;19923;-71
2021/11/16 06:42:23;;;;;;;;;;;6.70;99.90;;;;;;8419739;28;21425;-72
2021/11/16 06:46:25;;;;;;;;;;;6.70;99.90;;;;;;8413896;28;20355;-72
2021/11/16 06:50:26;;;;;;;;;;;6.70;99.90;;;;;;8413459;28;20022;-72
2021/11/16 06:54:28;;;;;;;;;;;6.60;99.90;;;;;;8426038;28;19939;-72
2021/11/16 06:58:32;;;;;;;;;;;6.60;99.90;;;;;;8424670;28;20402;-72
2021/11/16 07:02:34;;;;;;;;;;;6.60;99.90;;;;;;8426699;28;20232;-73
2021/11/16 07:06:40;;;;;;;;;;;6.60;99.90;;;;;;8431236;28;19970;-72
2021/11/16 07:10:41;;;;;;;;;;;6.60;99.90;;;;;;8421593;28;20342;-71
2021/11/16 07:14:43;;;;;;;;;;;6.60;99.90;;;;;;8424023;28;19946;-71
2021/11/16 07:18:50;;;;;;;;;;;6.50;99.90;;;;;;8435448;28;19940;-72
2021/11/16 07:22:52;;;;;;;;;;;6.60;99.90;;;;;;8422546;28;19935;-71
2021/11/16 07:26:59;;;;;;;;;;;6.50;99.90;;;;;;8457453;27;20459;-72
2021/11/16 07:31:00;;;;;;;;;;;6.50;99.90;;;;;;8428091;28;19932;-72
2021/11/16 07:35:05;;;;;;;;;;;6.60;99.90;;;;;;8431160;28;19942;-72
2021/11/16 07:39:08;;;;;;;;;;;6.60;99.90;;;;;;8434873;28;19932;-72
2021/11/16 07:43:11;;;;;;;;;;;6.60;99.90;;;;;;8428897;28;19924;-71
2021/11/16 07:47:12;;;;;;;;;;;6.60;99.90;;;;;;8429373;28;19932;-71
2021/11/16 07:51:15;;;;;;;;;;;6.60;99.90;;;;;;8423719;28;19925;-72
2021/11/16 07:55:26;;;;;;;;;;;6.60;99.90;;;;;;8413582;28;19931;-72
2021/11/16 07:59:28;;;;;;;;;;;6.60;99.90;;;;;;8398369;28;19924;-72
2021/11/16 08:03:31;;;;;;;;;;;6.60;99.90;;;;;;8404082;28;19925;-71
2021/11/16 08:07:53;;;;;;;;;;;6.60;99.90;;;;;;8400740;28;20284;-72
2021/11/16 08:12:11;;;;;;;;;;;6.60;99.90;;;;;;8411901;28;20276;-72
2021/11/16 08:16:13;;;;;;;;;;;6.60;99.90;;;;;;8403409;28;19931;-71
2021/11/16 08:20:15;;;;;;;;;;;6.60;99.90;;;;;;8395789;28;19988;-72
2021/11/16 08:24:17;;;;;;;;;;;6.60;99.90;;;;;;8397053;28;20591;-71
2021/11/16 08:28:18;;;;;;;;;;;6.60;99.90;;;;;;8401105;28;19932;-71
2021/11/16 08:32:22;;;;;;;;;;;6.60;99.90;;;;;;8397414;28;19933;-72
2021/11/16 08:36:27;;;;;;;;;;;6.60;99.90;;;;;;8396084;28;19924;-72
2021/11/16 08:40:32;;;;;;;;;;;6.60;99.90;;;;;;8397142;28;19932;-71
2021/11/16 08:44:42;;;;;;;;;;;6.60;99.90;;;;;;8404706;28;20372;-71
2021/11/16 08:48:50;;;;;;;;;;;6.60;99.90;;;;;;8397932;28;19928;-71
2021/11/16 08:52:51;;;;;;;;;;;6.60;99.90;;;;;;8406792;28;20591;-71
2021/11/16 08:56:53;;;;;;;;;;;6.60;99.90;;;;;;8394152;28;19924;-71
2021/11/16 09:00:57;;;;;;;;;;;6.60;99.90;;;;;;8401320;28;20012;-72
2021/11/16 09:05:07;;;;;;;;;;;6.60;99.90;;;;;;8416392;28;19932;-71
2021/11/16 09:09:11;;;;;;;;;;;6.60;99.90;;;;;;8398766;28;19932;-72
2021/11/16 09:13:14;;;;;;;;;;;6.60;99.90;;;;;;8396387;28;19931;-72
2021/11/16 09:17:16;;;;;;;;;;;6.60;99.90;;;;;;8397895;28;19931;-72
2021/11/16 09:21:22;;;;;;;;;;;6.60;99.90;;;;;;8391983;28;19935;-72
2021/11/16 09:25:25;;;;;;;;;;;6.60;99.90;;;;;;8397064;28;19931;-71
2021/11/16 09:29:27;;;;;;;;;;;6.70;99.90;;;;;;8401421;28;19954;-72
2021/11/16 09:33:35;;;;;;;;;;;6.60;99.90;;;;;;8405190;28;19924;-71
2021/11/16 09:37:40;;;;;;;;;;;6.60;99.90;;;;;;8401224;28;20484;-71
2021/11/16 09:41:45;;;;;;;;;;;6.60;99.90;;;;;;8399139;28;19924;-71
2021/11/16 09:45:48;;;;;;;;;;;6.60;99.90;;;;;;8399330;28;19932;-71
2021/11/16 09:49:54;;;;;;;;;;;6.60;99.90;;;;;;8394949;28;19924;-71
2021/11/16 09:54:07;;;;;;;;;;;6.60;99.90;;;;;;8426669;27;20640;-71
2021/11/16 09:58:19;;;;;;;;;;;6.60;99.90;;;;;;8401190;28;19978;-72
2021/11/16 10:02:23;;;;;;;;;;;6.60;99.90;;;;;;8393838;28;19933;-71
2021/11/16 10:06:28;;;;;;;;;;;6.60;99.90;;;;;;8392511;28;19932;-71
2021/11/16 10:10:31;;;;;;;;;;;6.70;99.90;;;;;;8394445;28;19932;-71
2021/11/16 10:14:33;;;;;;;;;;;6.70;99.90;;;;;;8396979;28;20428;-71
2021/11/16 10:18:38;;;;;;;;;;;6.70;99.90;;;;;;8397756;28;19928;-71
2021/11/16 10:22:42;;;;;;;;;;;6.80;99.90;;;;;;8398410;28;20403;-72
2021/11/16 10:26:43;;;;;;;;;;;6.80;99.90;;;;;;8402496;28;19982;-71
2021/11/16 10:30:48;;;;;;;;;;;6.80;99.90;;;;;;8398196;28;20557;-71
2021/11/16 10:34:50;;;;;;;;;;;6.80;99.90;;;;;;8404910;28;19931;-71
2021/11/16 10:38:56;;;;;;;;;;;6.80;99.90;;;;;;8411768;28;19932;-71
2021/11/16 10:42:59;;;;;;;;;;;6.90;99.90;;;;;;8398076;28;19928;-71
2021/11/16 10:47:01;;;;;;;;;;;6.90;99.90;;;;;;8400640;28;19935;-71
2021/11/16 10:51:13;;;;;;;;;;;6.90;99.90;;;;;;8401128;28;20276;-71
2021/11/16 10:55:18;;;;;;;;;;;6.90;99.90;;;;;;8403978;28;20015;-72
2021/11/16 10:59:26;;;;;;;;;;;6.90;99.90;;;;;;8397433;28;19932;-71
2021/11/16 11:03:31;;;;;;;;;;;6.90;99.90;;;;;;8406110;28;19928;-72
2021/11/16 11:07:37;;;;;;;;;;;6.90;99.90;;;;;;8399417;28;20079;-71
2021/11/16 11:11:41;;;;;;;;;;;6.90;99.90;;;;;;8403712;28;19928;-72
2021/11/16 11:15:42;;;;;;;;;;;6.90;99.90;;;;;;8409281;28;20300;-72
2021/11/16 11:19:44;;;;;;;;;;;6.90;99.90;;;;;;8397331;28;19940;-71
2021/11/16 11:23:48;;;;;;;;;;;6.90;99.90;;;;;;8406143;28;19932;-71
2021/11/16 11:27:58;;;;;;;;;;;6.90;99.90;;;;;;8405532;28;19928;-72
2021/11/16 11:32:00;;;;;;;;;;;6.90;99.90;;;;;;8404191;28;19924;-72
2021/11/16 11:36:18;;;;;;;;;;;6.90;99.90;;;;;;8402607;28;19932;-71
2021/11/16 11:40:21;;;;;;;;;;;6.90;99.90;;;;;;8402585;28;19924;-72
2021/11/16 11:44:25;;;;;;;;;;;6.80;99.90;;;;;;8403355;28;19935;-72
2021/11/16 11:48:27;;;;;;;;;;;6.80;99.90;;;;;;8400514;28;19944;-71
2021/11/16 11:52:28;;;;;;;;;;;6.80;99.90;;;;;;8402049;28;19924;-71
2021/11/16 11:56:30;;;;;;;;;;;6.80;99.90;;;;;;8401531;28;19976;-71
2021/11/16 12:00:33;;;;;;;;;;;6.80;99.90;;;;;;8398748;28;19931;-71
2021/11/16 12:04:36;;;;;;;;;;;6.80;99.90;;;;;;8402939;28;19930;-71
2021/11/16 12:08:38;;;;;;;;;;;6.80;99.90;;;;;;8433815;27;19955;-71
2021/11/16 12:12:41;;;;;;;;;;;6.80;99.90;;;;;;8398969;28;19924;-71
2021/11/16 12:16:55;;;;;;;;;;;6.80;99.90;;;;;;8391579;28;19932;-71
2021/11/16 12:20:59;;;;;;;;;;;6.90;99.90;;;;;;8393690;28;19947;-70
2021/11/16 12:25:24;;;;;;;;;;;6.90;99.90;;;;;;8397465;28;19928;-71
2021/11/16 12:29:42;;;;;;;;;;;6.80;99.90;;;;;;8399555;28;21905;-70
2021/11/16 12:33:45;;;;;;;;;;;6.70;99.90;;;;;;8398359;28;19935;-71
2021/11/16 12:37:49;;;;;;;;;;;6.70;99.90;;;;;;8397821;28;20322;-71
2021/11/16 12:41:52;;;;;;;;;;;6.60;99.90;;;;;;8399364;28;19928;-71
2021/11/16 12:45:57;;;;;;;;;;;6.60;99.90;;;;;;8396451;28;20410;-71
2021/11/16 12:50:14;;;;;;;;;;;6.50;99.90;;;;;;8399297;28;19939;-71
2021/11/16 12:54:27;;;;;;;;;;;6.50;99.90;;;;;;8404531;28;19989;-71
2021/11/16 12:58:29;;;;;;;;;;;6.50;99.90;;;;;;8398738;28;19990;-71
2021/11/16 13:02:34;;;;;;;;;;;6.50;99.90;;;;;;8395254;28;19989;-71
2021/11/16 13:06:36;;;;;;;;;;;6.60;99.90;;;;;;8399977;28;19977;-71
2021/11/16 13:10:58;;;;;;;;;;;6.60;99.90;;;;;;8398688;28;19933;-73
2021/11/16 13:15:00;;;;;;;;;;;6.60;99.90;;;;;;8393946;28;19983;-71
2021/11/16 13:19:03;;;;;;;;;;;6.60;99.90;;;;;;8392871;28;19924;-70
2021/11/16 13:23:14;;;;;;;;;;;6.60;99.90;;;;;;8402315;28;19936;-71
2021/11/16 13:27:16;;;;;;;;;;;6.60;99.90;;;;;;8398245;28;19924;-71
2021/11/16 13:31:17;;;;;;;;;;;6.60;99.90;;;;;;8391814;28;20489;-72
2021/11/16 13:35:19;;;;;;;;;;;6.60;99.90;;;;;;8393458;28;19928;-71
2021/11/16 13:39:24;;;;;;;;;;;6.60;99.90;;;;;;8396827;28;19959;-71
2021/11/16 13:43:27;;;;;;;;;;;6.60;99.90;;;;;;8391098;28;19956;-71
2021/11/16 13:47:33;;;;;;;;;;;6.60;99.90;;;;;;8392872;28;19932;-71
2021/11/16 13:51:37;;;;;;;;;;;6.50;99.90;;;;;;8396143;28;19925;-71
2021/11/16 13:55:44;;;;;;;;;;;6.50;99.90;;;;;;8428481;27;19982;-70
2021/11/16 13:59:55;;;;;;;;;;;6.50;99.90;;;;;;8426045;27;19928;-70
2021/11/16 14:04:17;;;;;;;;;;;6.50;99.90;;;;;;8391907;28;19932;-70
2021/11/16 14:08:27;;;;;;;;;;;6.50;99.90;;;;;;8408719;28;20271;-70
2021/11/16 14:12:29;;;;;;;;;;;6.40;99.90;;;;;;8390057;28;19982;-71
2021/11/16 14:16:31;;;;;;;;;;;6.40;99.90;;;;;;8413190;28;20364;-71
2021/11/16 14:20:33;;;;;;;;;;;6.40;99.90;;;;;;8396826;28;19929;-71
2021/11/16 14:24:35;;;;;;;;;;;6.40;99.90;;;;;;8393815;28;19924;-71
2021/11/16 14:28:40;;;;;;;;;;;6.30;99.90;;;;;;8395958;28;19935;-71
2021/11/16 14:32:42;;;;;;;;;;;6.30;99.90;;;;;;8393692;28;19970;-71
2021/11/16 14:36:49;;;;;;;;;;;6.30;99.90;;;;;;8399400;28;20453;-71
2021/11/16 14:40:56;;;;;;;;;;;6.30;99.90;;;;;;8393669;28;19956;-71
2021/11/16 14:44:57;;;;;;;;;;;6.30;99.90;;;;;;8401328;28;19935;-71
2021/11/16 14:48:59;;;;;;;;;;;6.30;99.90;;;;;;8395736;28;19929;-71
2021/11/16 14:53:09;;;;;;;;;;;6.30;99.90;;;;;;8395960;28;20015;-71
2021/11/16 14:57:10;;;;;;;;;;;6.20;99.90;;;;;;8406360;28;20455;-71
2021/11/16 15:01:12;;;;;;;;;;;6.20;99.90;;;;;;8395755;28;20005;-71
2021/11/16 15:05:14;;;;;;;;;;;6.20;99.90;;;;;;8405177;28;19951;-71
2021/11/16 15:09:17;;;;;;;;;;;6.10;99.90;;;;;;8393646;28;19935;-71
2021/11/16 15:13:20;;;;;;;;;;;6.20;99.90;;;;;;8395173;28;19936;-71
2021/11/16 15:17:22;;;;;;;;;;;6.20;99.90;;;;;;8396830;28;19924;-71
2021/11/16 15:21:26;;;;;;;;;;;6.20;99.90;;;;;;8402401;28;19924;-72
2021/11/16 15:25:29;;;;;;;;;;;6.20;99.90;;;;;;8401172;28;19928;-71
2021/11/16 15:29:31;;;;;;;;;;;6.20;99.90;;;;;;8403768;28;20245;-71
2021/11/16 15:33:35;;;;;;;;;;;6.20;99.90;;;;;;8396027;28;20391;-72
2021/11/16 15:37:37;;;;;;;;;;;6.30;99.90;;;;;;8397106;28;20559;-72
2021/11/16 15:41:50;;;;;;;;;;;6.30;99.90;;;;;;8413626;27;19924;-72
2021/11/16 15:46:07;;;;;;;;;;;6.30;99.90;;;;;;8400369;28;19924;-71
2021/11/16 15:50:23;;;;;;;;;;;6.30;99.90;;;;;;8401085;28;20042;-72
2021/11/16 15:58:59;;;;;;;;;;;6.30;99.90;;;;;;8396709;28;19924;-72
2021/11/16 16:03:05;;;;;;;;;;;6.30;99.90;;;;;;8400836;28;19924;-71
2021/11/16 16:07:10;;;;;;;;;;;6.20;99.90;;;;;;8400387;28;20285;-72
2021/11/16 16:11:20;;;;;;;;;;;6.20;99.90;;;;;;8397049;28;19925;-72
2021/11/16 16:15:32;;;;;;;;;;;6.20;99.90;;;;;;8401179;28;19924;-72
2021/11/16 16:19:36;;;;;;;;;;;6.20;99.90;;;;;;8399500;28;19985;-71
2021/11/16 16:23:46;;;;;;;;;;;6.20;99.90;;;;;;8396492;28;19932;-71
2021/11/16 16:27:49;;;;;;;;;;;6.20;99.90;;;;;;8400678;28;19928;-72
2021/11/16 16:31:51;;;;;;;;;;;6.20;99.90;;;;;;8394759;28;19927;-72
2021/11/16 16:35:53;;;;;;;;;;;6.20;99.90;;;;;;8396829;28;19924;-72
2021/11/16 16:39:55;;;;;;;;;;;6.10;99.90;;;;;;8395848;28;20257;-71
2021/11/16 16:44:00;;;;;;;;;;;6.10;99.90;;;;;;8397329;28;19928;-71
2021/11/16 16:48:02;;;;;;;;;;;6.10;99.90;;;;;;8401925;28;19929;-71
2021/11/16 16:52:04;;;;;;;;;;;6.10;99.90;;;;;;8398340;28;19928;-72
2021/11/16 16:56:07;;;;;;;;;;;6.20;99.90;;;;;;8397800;28;19939;-71
2021/11/16 17:00:09;;;;;;;;;;;6.20;99.90;;;;;;8395882;28;19928;-72
2021/11/16 17:04:14;;;;;;;;;;;6.20;99.90;;;;;;8397429;28;19928;-72
2021/11/16 17:08:17;;;;;;;;;;;6.20;99.90;;;;;;8399644;28;19932;-72
2021/11/16 17:12:20;;;;;;;;;;;6.20;99.90;;;;;;8399735;28;19932;-71
2021/11/16 17:16:22;;;;;;;;;;;6.20;99.90;;;;;;8398550;28;20279;-72
2021/11/16 17:20:23;;;;;;;;;;;6.20;99.90;;;;;;8395726;28;20300;-71
2021/11/16 17:24:25;;;;;;;;;;;6.20;99.90;;;;;;8391901;28;20372;-72
2021/11/16 17:28:28;;;;;;;;;;;6.20;99.90;;;;;;8407380;28;19928;-72
2021/11/16 17:32:29;;;;;;;;;;;6.20;99.90;;;;;;8399802;28;19932;-71
2021/11/16 17:36:31;;;;;;;;;;;6.20;99.90;;;;;;8416242;27;20004;-72
2021/11/16 17:40:33;;;;;;;;;;;6.20;99.90;;;;;;8394051;28;20406;-71
2021/11/16 17:44:35;;;;;;;;;;;6.20;99.90;;;;;;8395605;28;20372;-72
2021/11/16 17:48:36;;;;;;;;;;;6.10;99.90;;;;;;8398529;28;19924;-71
2021/11/16 17:52:39;;;;;;;;;;;6.10;99.90;;;;;;8394520;28;19935;-72
2021/11/16 17:56:41;;;;;;;;;;;6.20;99.90;;;;;;8394716;28;19932;-71
2021/11/16 18:00:42;;;;;;;;;;;6.10;99.90;;;;;;8398431;28;19924;-71
2021/11/16 18:04:48;;;;;;;;;;;6.20;99.90;;;;;;8394500;28;19929;-71
2021/11/16 18:08:51;;;;;;;;;;;6.10;99.90;;;;;;8391666;28;19933;-71
2021/11/16 18:12:52;;;;;;;;;;;6.10;99.90;;;;;;8394403;28;19925;-71
2021/11/16 18:16:54;;;;;;;;;;;6.20;99.90;;;;;;8390285;28;19925;-72
2021/11/16 18:20:56;;;;;;;;;;;6.10;99.90;;;;;;8393235;28;20351;-72
2021/11/16 18:25:01;;;;;;;;;;;6.10;99.90;;;;;;8397145;28;19943;-72
2021/11/16 18:29:02;;;;;;;;;;;6.10;99.90;;;;;;8404843;28;19925;-73
2021/11/16 18:33:09;;;;;;;;;;;6.10;99.90;;;;;;8396992;28;20945;-72
2021/11/16 18:37:10;;;;;;;;;;;6.00;99.90;;;;;;8395281;28;19932;-72
2021/11/16 18:41:16;;;;;;;;;;;6.00;99.90;;;;;;8393502;28;19924;-72
2021/11/16 18:45:17;;;;;;;;;;;6.00;99.90;;;;;;8392116;28;19923;-72
2021/11/16 18:49:23;;;;;;;;;;;6.10;99.90;;;;;;8395355;28;19928;-71
2021/11/16 18:53:25;;;;;;;;;;;6.10;99.90;;;;;;8396882;28;19924;-72
2021/11/16 18:57:27;;;;;;;;;;;6.10;99.90;;;;;;8403229;28;20371;-73
2021/11/16 19:01:28;;;;;;;;;;;6.00;99.90;;;;;;8403268;28;19927;-71
2021/11/16 19:05:30;;;;;;;;;;;6.00;99.90;;;;;;8403385;28;19995;-72
2021/11/16 19:09:32;;;;;;;;;;;6.00;99.90;;;;;;8407322;28;19927;-72
2021/11/16 19:13:38;;;;;;;;;;;6.00;99.90;;;;;;8402958;28;19920;-72
2021/11/16 19:17:41;;;;;;;;;;;6.00;99.90;;;;;;8404518;28;19934;-71
2021/11/16 19:21:52;;;;;;;;;;;6.00;99.90;;;;;;8404209;28;19940;-72
2021/11/16 19:25:58;;;;;;;;;;;6.00;99.90;;;;;;8404891;28;19921;-72
2021/11/16 19:30:00;;;;;;;;;;;6.10;99.90;;;;;;8401014;28;19951;-72
2021/11/16 19:34:02;;;;;;;;;;;6.10;99.90;;;;;;8406690;28;19936;-72
2021/11/16 19:38:06;;;;;;;;;;;6.10;99.90;;;;;;8404271;28;19924;-72
2021/11/16 19:42:08;;;;;;;;;;;6.10;99.90;;;;;;8392428;28;19935;-73
2021/11/16 19:46:12;;;;;;;;;;;6.10;99.90;;;;;;8395884;28;19931;-71
2021/11/16 19:50:14;;;;;;;;;;;6.10;99.90;;;;;;8395073;28;20303;-72
2021/11/16 19:54:16;;;;;;;;;;;6.10;99.90;;;;;;8401082;28;19935;-71
2021/11/16 19:58:18;;;;;;;;;;;6.10;99.90;;;;;;8404489;28;19928;-73
2021/11/16 20:02:20;;;;;;;;;;;6.10;99.90;;;;;;8401675;28;19931;-72
2021/11/16 20:06:22;;;;;;;;;;;6.10;99.90;;;;;;8396879;28;20467;-72
2021/11/16 20:10:24;;;;;;;;;;;6.10;99.90;;;;;;8413847;28;19965;-72
2021/11/16 20:14:26;;;;;;;;;;;6.10;99.90;;;;;;8400462;28;19924;-71
2021/11/16 20:18:28;;;;;;;;;;;6.20;99.90;;;;;;8400817;28;19920;-73
2021/11/16 20:22:30;;;;;;;;;;;6.20;99.90;;;;;;8397578;28;20317;-71
2021/11/16 20:26:32;;;;;;;;;;;6.20;99.90;;;;;;8411527;28;19924;-72
2021/11/16 20:30:44;;;;;;;;;;;6.20;99.90;;;;;;8406017;28;19928;-72
2021/11/16 20:43:26;;;;;;;;;;;6.20;99.90;;;;;;8401597;28;20428;-72
2021/11/16 21:00:29;;;;;;;;;;;6.20;99.90;;;;;;8403174;28;20320;-72
2021/11/16 21:04:30;;;;;;;;;;;6.20;99.90;;;;;;8398137;28;19920;-71
2021/11/16 21:08:32;;;;;;;;;;;6.20;99.90;;;;;;8400388;28;19935;-71
2021/11/16 21:12:34;;;;;;;;;;;6.20;99.90;;;;;;8397072;28;19920;-71
2021/11/16 21:16:36;;;;;;;;;;;6.20;99.90;;;;;;8397529;28;19920;-72
2021/11/16 21:20:38;;;;;;;;;;;6.20;99.90;;;;;;8397585;28;19924;-71
2021/11/16 21:24:40;;;;;;;;;;;6.20;99.90;;;;;;8399144;28;19940;-72
2021/11/16 21:28:47;;;;;;;;;;;6.20;99.90;;;;;;8394074;28;19928;-72
2021/11/16 21:32:49;;;;;;;;;;;6.20;99.90;;;;;;8392977;28;19974;-72
2021/11/16 21:36:50;;;;;;;;;;;6.20;99.90;;;;;;8397129;28;19920;-72
2021/11/16 21:40:52;;;;;;;;;;;6.20;99.90;;;;;;8396075;28;19924;-73
2021/11/16 21:44:54;;;;;;;;;;;6.20;99.90;;;;;;8393748;28;20378;-71
2021/11/16 21:48:57;;;;;;;;;;;6.20;99.90;;;;;;8395164;28;19970;-72
2021/11/16 21:52:58;;;;;;;;;;;6.20;99.90;;;;;;8396379;28;19970;-72
2021/11/16 21:57:00;;;;;;;;;;;6.30;99.90;;;;;;8416121;28;19939;-72
2021/11/16 22:01:02;;;;;;;;;;;6.20;99.90;;;;;;8404483;28;19920;-72
2021/11/16 22:05:07;;;;;;;;;;;6.20;99.90;;;;;;8422016;28;19920;-72
2021/11/16 22:09:12;;;;;;;;;;;6.20;99.90;;;;;;8429281;28;19939;-72
2021/11/16 22:13:15;;;;;;;;;;;6.20;99.90;;;;;;8420259;28;19920;-72
2021/11/16 22:17:19;;;;;;;;;;;6.20;99.90;;;;;;8422007;28;20388;-72
2021/11/16 22:21:21;;;;;;;;;;;6.20;99.90;;;;;;8423718;28;19920;-72
2021/11/16 22:25:23;;;;;;;;;;;6.20;99.90;;;;;;8419956;28;19946;-72
2021/11/16 22:29:26;;;;;;;;;;;6.20;99.90;;;;;;8424872;28;19920;-72
2021/11/16 22:33:28;;;;;;;;;;;6.20;99.90;;;;;;8429215;28;20433;-72
2021/11/16 22:37:30;;;;;;;;;;;6.20;99.90;;;;;;8436981;28;19919;-72
2021/11/16 22:41:58;;;;;;;;;;;6.30;99.90;;;;;;8426274;28;19924;-72
2021/11/16 22:46:00;;;;;;;;;;;6.30;99.90;;;;;;8431127;28;19961;-72
2021/11/16 22:50:02;;;;;;;;;;;6.30;99.90;;;;;;8430949;28;19931;-72
2021/11/16 22:54:04;;;;;;;;;;;6.30;99.90;;;;;;8428237;28;19920;-72
2021/11/16 22:58:05;;;;;;;;;;;6.30;99.90;;;;;;8436226;28;19927;-72
